createdAt,value
2018-08-03T00:02:11.509Z,95108.83
2018-08-03T00:04:40.527Z,95110.00
2018-08-03T00:07:09.818Z,95107.39
2018-08-03T00:09:38.623Z,95107.27
2018-08-03T00:12:08.194Z,95097.18
2018-08-03T00:14:37.246Z,95097.98
2018-08-03T00:17:06.328Z,95090.09
2018-08-03T00:19:35.454Z,95097.77
2018-08-03T00:22:04.818Z,95096.24
2018-08-03T00:24:33.723Z,95096.71
2018-08-03T00:27:02.503Z,95096.93
2018-08-03T00:29:31.417Z,95099.08
2018-08-03T00:32:00.340Z,95095.95
2018-08-03T00:34:29.385Z,95096.47
2018-08-03T00:36:58.781Z,95097.20
2018-08-03T00:39:27.858Z,95096.91
2018-08-03T00:41:56.957Z,95103.55
2018-08-03T00:44:26.088Z,95102.50
2018-08-03T00:46:55.196Z,95098.14
2018-08-03T00:49:24.116Z,95094.95
2018-08-03T00:51:53.113Z,95106.41
2018-08-03T00:54:22.977Z,95108.19
2018-08-03T00:56:51.775Z,95110.50
2018-08-03T00:59:21.710Z,95097.50
2018-08-03T01:01:50.672Z,95102.69
2018-08-03T01:04:19.668Z,95102.05
2018-08-03T01:06:48.803Z,95100.37
2018-08-03T01:09:17.852Z,95112.97
2018-08-03T01:11:47.564Z,95104.53
2018-08-03T01:14:16.354Z,95112.66
2018-08-03T01:16:45.272Z,95102.41
2018-08-03T01:19:15.282Z,95106.70
2018-08-03T01:21:45.427Z,95106.80
2018-08-03T01:24:14.511Z,95113.83
2018-08-03T01:26:43.627Z,95106.02
2018-08-03T01:29:13.311Z,95108.77
2018-08-03T01:31:42.291Z,95108.19
2018-08-03T01:34:11.267Z,95111.17
2018-08-03T01:36:40.047Z,95100.95
2018-08-03T01:39:09.814Z,95104.36
2018-08-03T01:41:38.901Z,95109.45
2018-08-03T01:44:09.639Z,95107.45
2018-08-03T01:46:38.392Z,95111.76
2018-08-03T01:49:07.591Z,95113.13
2018-08-03T01:51:37.141Z,95105.41
2018-08-03T01:54:06.202Z,95113.55
2018-08-03T01:56:35.009Z,95117.21
2018-08-03T01:59:04.577Z,95117.97
2018-08-03T02:01:33.818Z,95127.20
2018-08-03T02:04:02.798Z,95115.97
2018-08-03T02:06:32.045Z,95115.22
2018-08-03T02:09:00.913Z,95118.70
2018-08-03T02:11:30.212Z,95118.41
2018-08-03T02:13:59.755Z,95114.26
2018-08-03T02:16:28.810Z,95113.15
2018-08-03T02:18:57.599Z,95116.69
2018-08-03T02:21:26.794Z,95111.88
2018-08-03T02:23:55.587Z,95120.89
2018-08-03T02:26:24.471Z,95124.36
2018-08-03T02:28:54.004Z,95124.48
2018-08-03T02:31:22.980Z,95125.55
2018-08-03T02:33:51.974Z,95133.81
2018-08-03T02:36:22.375Z,95128.53
2018-08-03T02:38:52.315Z,95130.02
2018-08-03T02:41:21.050Z,95128.00
2018-08-03T02:43:50.755Z,95127.62
2018-08-03T02:46:19.759Z,95125.97
2018-08-03T02:48:49.526Z,95132.80
2018-08-03T02:51:18.943Z,95127.77
2018-08-03T02:53:48.643Z,95137.92
2018-08-03T02:56:17.634Z,95141.97
2018-08-03T02:58:47.796Z,95140.70
2018-08-03T03:01:17.362Z,95134.30
2018-08-03T03:03:46.043Z,95141.98
2018-08-03T03:06:15.383Z,95141.35
2018-08-03T03:08:44.356Z,95147.80
2018-08-03T03:11:13.727Z,95142.23
2018-08-03T03:13:42.990Z,95146.91
2018-08-03T03:16:12.544Z,95141.35
2018-08-03T03:18:42.026Z,95139.10
2018-08-03T03:21:11.269Z,95133.05
2018-08-03T03:23:40.119Z,95132.84
2018-08-03T03:26:08.842Z,95137.39
2018-08-03T03:28:38.057Z,95144.25
2018-08-03T03:31:06.739Z,95146.14
2018-08-03T03:33:35.861Z,95148.29
2018-08-03T03:36:05.418Z,95146.63
2018-08-03T03:38:34.298Z,95151.01
2018-08-03T03:41:03.408Z,95157.45
2018-08-03T03:43:32.504Z,95151.83
2018-08-03T03:46:01.517Z,95161.98
2018-08-03T03:48:30.303Z,95161.83
2018-08-03T03:50:59.440Z,95161.77
2018-08-03T03:53:28.400Z,95162.42
2018-08-03T03:55:57.374Z,95158.85
2018-08-03T03:58:26.233Z,95167.63
2018-08-03T04:00:55.392Z,95167.23
2018-08-03T04:03:25.090Z,95181.06
2018-08-03T04:05:54.631Z,95180.95
2018-08-03T04:08:23.874Z,95181.75
2018-08-03T04:10:52.940Z,95175.61
2018-08-03T04:13:21.910Z,95171.82
2018-08-03T04:15:50.899Z,95171.03
2018-08-03T04:18:22.055Z,95170.55
2018-08-03T04:20:52.372Z,95177.37
2018-08-03T04:23:21.230Z,95177.34
2018-08-03T04:25:50.152Z,95174.72
2018-08-03T04:28:19.244Z,95173.73
2018-08-03T04:30:48.211Z,95180.36
2018-08-03T04:33:18.139Z,95172.21
2018-08-03T04:35:47.814Z,95170.50
2018-08-03T04:38:16.972Z,95164.79
2018-08-03T04:40:46.051Z,95175.58
2018-08-03T04:43:15.144Z,95174.54
2018-08-03T04:45:44.654Z,95182.20
2018-08-03T04:48:13.658Z,95189.11
2018-08-03T04:50:42.545Z,95178.35
2018-08-03T04:53:11.642Z,95182.11
2018-08-03T04:55:40.711Z,95189.17
2018-08-03T04:58:09.678Z,95193.14
2018-08-03T05:00:38.823Z,95201.98
2018-08-03T05:03:07.910Z,95200.63
2018-08-03T05:05:36.806Z,95198.01
2018-08-03T05:08:05.710Z,95199.30
2018-08-03T05:10:34.631Z,95193.19
2018-08-03T05:13:03.925Z,95203.22
2018-08-03T05:15:33.726Z,95201.74
2018-08-03T05:18:02.738Z,95199.35
2018-08-03T05:20:31.812Z,95197.57
2018-08-03T05:23:01.173Z,95201.90
2018-08-03T05:25:30.358Z,95208.02
2018-08-03T05:27:59.901Z,95208.81
2018-08-03T05:30:28.804Z,95207.05
2018-08-03T05:32:57.639Z,95213.52
2018-08-03T05:35:26.569Z,95208.58
2018-08-03T05:37:55.812Z,95206.22
2018-08-03T05:40:27.057Z,95197.80
2018-08-03T05:42:56.062Z,95195.56
2018-08-03T05:45:25.108Z,95197.59
2018-08-03T05:47:54.078Z,95198.32
2018-08-03T05:50:23.267Z,95200.70
2018-08-03T05:52:52.182Z,95192.48
2018-08-03T05:55:21.654Z,95198.38
2018-08-03T05:57:53.614Z,95200.07
2018-08-03T06:00:22.940Z,95200.05
2018-08-03T06:02:52.354Z,95200.02
2018-08-03T06:05:22.286Z,95201.50
2018-08-03T06:07:51.416Z,95199.52
2018-08-03T06:10:20.542Z,95214.75
2018-08-03T06:12:50.009Z,95218.95
2018-08-03T06:15:19.721Z,95218.33
2018-08-03T06:17:51.026Z,95209.06
2018-08-03T06:20:20.151Z,95218.09
2018-08-03T06:22:49.936Z,95214.48
2018-08-03T06:25:18.717Z,95219.82
2018-08-03T06:27:47.784Z,95211.03
2018-08-03T06:30:16.889Z,95219.36
2018-08-03T06:32:45.816Z,95218.81
2018-08-03T06:35:15.071Z,95217.33
2018-08-03T06:37:44.206Z,95220.95
2018-08-03T06:40:13.175Z,95212.23
2018-08-03T06:42:42.204Z,95217.86
2018-08-03T06:45:11.232Z,95219.50
2018-08-03T06:47:40.309Z,95213.27
2018-08-03T06:50:09.205Z,95220.89
2018-08-03T06:52:38.333Z,95215.41
2018-08-03T06:55:07.568Z,95209.34
2018-08-03T06:57:37.169Z,95211.91
2018-08-03T07:00:07.285Z,95210.59
2018-08-03T07:02:36.200Z,95205.45
2018-08-03T07:05:05.303Z,95216.53
2018-08-03T07:07:34.243Z,95205.45
2018-08-03T07:10:03.199Z,95210.42
2018-08-03T07:12:32.288Z,95208.98
2018-08-03T07:15:01.602Z,95213.02
2018-08-03T07:17:30.986Z,95214.80
2018-08-03T07:20:00.766Z,95222.76
2018-08-03T07:22:29.647Z,95218.77
2018-08-03T07:24:59.412Z,95218.97
2018-08-03T07:27:28.794Z,95219.81
2018-08-03T07:29:58.530Z,95205.42
2018-08-03T07:32:28.121Z,95217.76
2018-08-03T07:34:57.662Z,95216.27
2018-08-03T07:37:31.215Z,95219.86
2018-08-03T07:40:02.030Z,95220.17
2018-08-03T07:42:33.035Z,95221.88
2018-08-03T07:45:02.729Z,95220.97
2018-08-03T07:47:32.439Z,95216.82
2018-08-03T07:50:01.547Z,95216.70
2018-08-03T07:52:30.759Z,95218.12
2018-08-03T07:54:59.522Z,95223.86
2018-08-03T07:57:28.784Z,95215.65
2018-08-03T07:59:57.648Z,95223.16
2018-08-03T08:02:26.722Z,95218.78
2018-08-03T08:04:55.634Z,95227.33
2018-08-03T08:07:24.401Z,95231.98
2018-08-03T08:09:53.083Z,95229.87
2018-08-03T08:12:22.635Z,95228.70
2018-08-03T08:14:51.480Z,95225.92
2018-08-03T08:17:20.265Z,95231.78
2018-08-03T08:19:49.362Z,95239.11
2018-08-03T08:22:18.687Z,95237.13
2018-08-03T08:24:47.466Z,95234.00
2018-08-03T08:27:16.788Z,95239.67
2018-08-03T08:29:45.675Z,95230.09
2018-08-03T08:32:14.935Z,95223.44
2018-08-03T08:34:43.878Z,95233.08
2018-08-03T08:37:12.751Z,95229.39
2018-08-03T08:39:42.247Z,95201.85
2018-08-03T08:42:11.591Z,95232.00
2018-08-03T08:44:40.432Z,95234.98
2018-08-03T08:47:09.475Z,95219.58
2018-08-03T08:49:38.630Z,95230.89
2018-08-03T08:52:07.835Z,95233.06
2018-08-03T08:54:36.640Z,95224.47
2018-08-03T08:57:05.931Z,95227.16
2018-08-03T08:59:35.331Z,95223.97
2018-08-03T09:02:04.334Z,95227.98
2018-08-03T09:04:33.873Z,95221.37
2018-08-03T09:07:03.043Z,95217.48
2018-08-03T09:09:31.726Z,95220.89
2018-08-03T09:12:00.524Z,95211.83
2018-08-03T09:14:29.442Z,95222.62
2018-08-03T09:16:58.710Z,95221.74
2018-08-03T09:19:27.508Z,95215.33
2018-08-03T09:21:56.418Z,95210.94
2018-08-03T09:24:25.456Z,95203.59
2018-08-03T09:26:54.491Z,95210.69
2018-08-03T09:29:23.534Z,95202.50
2018-08-03T09:31:52.790Z,95201.80
2018-08-03T09:34:21.991Z,95205.52
2018-08-03T09:36:51.485Z,95198.45
2018-08-03T09:39:21.106Z,95198.50
2018-08-03T09:41:49.750Z,95199.19
2018-08-03T09:44:19.031Z,95193.61
2018-08-03T09:46:48.074Z,95196.95
2018-08-03T09:49:16.891Z,95192.81
2018-08-03T09:51:46.089Z,95187.66
2018-08-03T09:54:15.277Z,95183.58
2018-08-03T09:56:44.283Z,95201.94
2018-08-03T09:59:13.431Z,95188.97
2018-08-03T10:01:42.305Z,95201.17
2018-08-03T10:04:11.186Z,95183.51
2018-08-03T10:06:40.478Z,95180.52
2018-08-03T10:09:09.860Z,95190.00
2018-08-03T10:11:38.795Z,95191.75
2018-08-03T10:14:08.568Z,95186.53
2018-08-03T10:16:38.178Z,95186.56
2018-08-03T10:19:07.167Z,95179.16
2018-08-03T10:21:36.118Z,95172.48
2018-08-03T10:24:05.359Z,95174.30
2018-08-03T10:26:34.351Z,95174.23
2018-08-03T10:29:03.149Z,95153.66
2018-08-03T10:31:32.346Z,95157.22
2018-08-03T10:34:01.752Z,95147.22
2018-08-03T10:36:30.844Z,95143.20
2018-08-03T10:38:59.939Z,95139.61
2018-08-03T10:41:29.374Z,95130.80
2018-08-03T10:43:58.471Z,95148.34
2018-08-03T10:46:27.756Z,95132.77
2018-08-03T10:48:56.945Z,95141.73
2018-08-03T10:51:26.121Z,95149.16
2018-08-03T10:53:55.208Z,95135.50
2018-08-03T10:56:24.702Z,95140.84
2018-08-03T10:58:53.750Z,95122.62
2018-08-03T11:01:23.007Z,95132.67
2018-08-03T11:03:52.202Z,95135.37
2018-08-03T11:06:21.335Z,95121.29
2018-08-03T11:08:50.123Z,95129.03
2018-08-03T11:11:19.522Z,95127.34
2018-08-03T11:13:48.548Z,95123.11
2018-08-03T11:16:17.423Z,95119.41
2018-08-03T11:18:46.209Z,95122.73
2018-08-03T11:21:15.610Z,95119.66
2018-08-03T11:23:44.744Z,95125.79
2018-08-03T11:26:13.750Z,95118.34
2018-08-03T11:28:42.681Z,95107.84
2018-08-03T11:31:11.697Z,95134.08
2018-08-03T11:33:40.938Z,95124.93
2018-08-03T11:36:10.155Z,95109.00
2018-08-03T11:38:39.217Z,95110.73
2018-08-03T11:41:08.106Z,95097.98
2018-08-03T11:43:37.486Z,95098.38
2018-08-03T11:46:06.566Z,95111.85
2018-08-03T11:48:35.922Z,95107.69
2018-08-03T11:51:04.913Z,95112.02
2018-08-03T11:53:34.290Z,95101.94
2018-08-03T11:56:03.515Z,95110.91
2018-08-03T11:58:32.667Z,95093.17
2018-08-03T12:01:02.317Z,95104.80
2018-08-03T12:03:31.381Z,95103.01
2018-08-03T12:06:00.490Z,95104.91
2018-08-03T12:08:29.464Z,95104.31
2018-08-03T12:10:58.914Z,95091.61
2018-08-03T12:13:27.988Z,95094.36
2018-08-03T12:15:56.790Z,95081.96
2018-08-03T12:18:25.915Z,95079.13
2018-08-03T12:20:55.168Z,95075.99
2018-08-03T12:23:24.295Z,95084.17
2018-08-03T12:25:53.171Z,95077.84
2018-08-03T12:28:21.972Z,95076.56
2018-08-03T12:30:51.109Z,95083.34
2018-08-03T12:33:20.174Z,95070.84
2018-08-03T12:35:49.416Z,95079.00
2018-08-03T12:38:18.330Z,95087.08
2018-08-03T12:40:47.318Z,95063.63
2018-08-03T12:43:16.473Z,95069.97
2018-08-03T12:45:45.723Z,95082.89
2018-08-03T12:48:14.698Z,95060.46
2018-08-03T12:50:44.478Z,95064.45
2018-08-03T12:53:13.081Z,95072.93
2018-08-03T12:55:42.299Z,95062.98
2018-08-03T12:58:11.444Z,95054.23
2018-08-03T13:00:40.483Z,95056.20
2018-08-03T13:03:09.456Z,95058.39
2018-08-03T13:05:38.726Z,95049.92
2018-08-03T13:08:08.032Z,95060.59
2018-08-03T13:10:37.442Z,95059.61
2018-08-03T13:13:06.221Z,95054.85
2018-08-03T13:15:35.870Z,95066.86
2018-08-03T13:18:04.642Z,95069.09
2018-08-03T13:20:34.714Z,95041.95
2018-08-03T13:23:04.526Z,95053.17
2018-08-03T13:25:33.482Z,95055.75
2018-08-03T13:28:02.736Z,95050.31
2018-08-03T13:30:32.547Z,95045.55
2018-08-03T13:33:01.464Z,95052.50
2018-08-03T13:35:30.354Z,95053.25
2018-08-03T13:37:59.345Z,95063.54
2018-08-03T13:40:28.428Z,95064.02
2018-08-03T13:42:57.623Z,95038.81
2018-08-03T13:45:27.036Z,95040.44
2018-08-03T13:47:56.158Z,95043.87
2018-08-03T13:50:25.674Z,95059.98
2018-08-03T13:52:54.518Z,95047.05
2018-08-03T13:55:24.388Z,95061.35
2018-08-03T13:57:53.151Z,95031.63
2018-08-03T14:00:22.122Z,95049.56
2018-08-03T14:02:51.469Z,95039.26
2018-08-03T14:05:20.625Z,95036.14
2018-08-03T14:07:49.505Z,95026.58
2018-08-03T14:10:18.655Z,95028.45
2018-08-03T14:12:47.777Z,95052.67
2018-08-03T14:15:16.794Z,95018.78
2018-08-03T14:17:45.943Z,95030.98
2018-08-03T14:20:15.002Z,95027.04
2018-08-03T14:22:44.243Z,95047.11
2018-08-03T14:25:13.101Z,95038.86
2018-08-03T14:27:41.977Z,95032.49
2018-08-03T14:30:10.809Z,95029.23
2018-08-03T14:32:39.911Z,95007.19
2018-08-03T14:35:09.044Z,95016.80
2018-08-03T14:37:38.155Z,95014.44
2018-08-03T14:40:07.113Z,95005.22
2018-08-03T14:42:36.058Z,95026.67
2018-08-03T14:45:05.865Z,95018.23
2018-08-03T14:47:35.689Z,95010.83
2018-08-03T14:50:05.299Z,95044.52
2018-08-03T14:52:34.391Z,95011.50
2018-08-03T14:55:04.130Z,95011.28
2018-08-03T14:57:32.899Z,95030.12
2018-08-03T15:00:02.809Z,95015.31
2018-08-03T15:02:31.898Z,95009.62
2018-08-03T15:05:00.999Z,95013.28
2018-08-03T15:07:30.508Z,95016.22
2018-08-03T15:09:59.666Z,95017.33
2018-08-03T15:12:28.638Z,95006.95
2018-08-03T15:14:57.813Z,95014.25
2018-08-03T15:17:26.611Z,95006.66
2018-08-03T15:19:55.679Z,95016.96
2018-08-03T15:22:25.188Z,95035.45
2018-08-03T15:24:54.313Z,95025.52
2018-08-03T15:27:23.315Z,95012.20
2018-08-03T15:29:52.364Z,95023.36
2018-08-03T15:32:22.054Z,95017.17
2018-08-03T15:34:51.298Z,95047.18
2018-08-03T15:37:20.347Z,95013.51
2018-08-03T15:39:49.208Z,95032.44
2018-08-03T15:42:18.446Z,95040.33
2018-08-03T15:44:47.564Z,95030.86
2018-08-03T15:47:16.822Z,95029.36
2018-08-03T15:49:45.692Z,95028.05
2018-08-03T15:52:14.879Z,95022.70
2018-08-03T15:54:44.072Z,95037.61
2018-08-03T15:57:13.662Z,95026.81
2018-08-03T15:59:43.176Z,95024.86
2018-08-03T16:02:11.885Z,95028.80
2018-08-03T16:04:41.266Z,95028.87
2018-08-03T16:07:11.008Z,95043.85
2018-08-03T16:09:39.907Z,95045.73
2018-08-03T16:12:09.575Z,95007.73
2018-08-03T16:14:38.659Z,95052.19
2018-08-03T16:17:07.706Z,95046.42
2018-08-03T16:19:36.878Z,95047.41
2018-08-03T16:22:06.036Z,95056.33
2018-08-03T16:24:35.316Z,95056.19
2018-08-03T16:27:04.372Z,95053.78
2018-08-03T16:29:33.243Z,95071.67
2018-08-03T16:32:02.294Z,95060.78
2018-08-03T16:34:31.455Z,95048.70
2018-08-03T16:37:00.344Z,95068.17
2018-08-03T16:39:29.505Z,95060.63
2018-08-03T16:41:58.729Z,95063.35
2018-08-03T16:44:27.771Z,95062.76
2018-08-03T16:46:57.059Z,95058.57
2018-08-03T16:49:26.674Z,95054.87
2018-08-03T16:51:55.854Z,95047.11
2018-08-03T16:54:24.979Z,95053.37
2018-08-03T16:56:54.027Z,95060.68
2018-08-03T16:59:24.147Z,95054.75
2018-08-03T17:01:53.719Z,95055.14
2018-08-03T17:04:22.773Z,95056.16
2018-08-03T17:06:51.890Z,95059.50
2018-08-03T17:09:20.767Z,95052.09
2018-08-03T17:11:49.647Z,95061.63
2018-08-03T17:14:18.490Z,95055.02
2018-08-03T17:16:47.316Z,95058.66
2018-08-03T17:19:16.202Z,95068.41
2018-08-03T17:21:45.103Z,95064.98
2018-08-03T17:24:14.345Z,95068.61
2018-08-03T17:26:43.435Z,95074.92
2018-08-03T17:29:12.582Z,95070.77
2018-08-03T17:31:42.993Z,95077.09
2018-08-03T17:34:12.593Z,95074.98
2018-08-03T17:36:42.327Z,95073.53
2018-08-03T17:39:12.910Z,95075.89
2018-08-03T17:41:46.217Z,95074.24
2018-08-03T17:44:15.218Z,95078.88
2018-08-03T17:46:44.308Z,95075.16
2018-08-03T17:49:13.199Z,95078.75
2018-08-03T17:51:42.004Z,95085.46
2018-08-03T17:54:11.315Z,95093.77
2018-08-03T17:56:40.147Z,95090.66
2018-08-03T17:59:09.408Z,95072.38
2018-08-03T18:01:38.432Z,95087.39
2018-08-03T18:04:09.400Z,95083.11
2018-08-03T18:06:39.132Z,95079.78
2018-08-03T18:09:10.882Z,95074.94
2018-08-03T18:11:40.505Z,95086.38
2018-08-03T18:14:09.395Z,95088.73
2018-08-03T18:16:38.469Z,95083.88
2018-08-03T18:19:07.347Z,95093.44
2018-08-03T18:21:42.372Z,95099.05
2018-08-03T18:24:11.714Z,95104.84
2018-08-03T18:26:40.435Z,95107.98
2018-08-03T18:29:09.289Z,95113.29
2018-08-03T18:31:38.727Z,95114.62
2018-08-03T18:34:07.488Z,95114.20
2018-08-03T18:36:36.278Z,95118.60
2018-08-03T18:39:06.754Z,95120.98
2018-08-03T18:41:36.183Z,95124.35
2018-08-03T18:44:05.051Z,95126.84
2018-08-03T18:46:34.383Z,95131.44
2018-08-03T18:49:04.259Z,95124.44
2018-08-03T18:51:35.493Z,95128.03
2018-08-03T18:54:04.365Z,95137.53
2018-08-03T18:56:33.166Z,95132.45
2018-08-03T18:59:03.111Z,95127.80
2018-08-03T19:01:32.362Z,95128.81
2018-08-03T19:04:01.389Z,95130.78
2018-08-03T19:06:31.545Z,95124.31
2018-08-03T19:09:01.202Z,95118.82
2018-08-03T19:11:30.231Z,95122.52
2018-08-03T19:13:59.432Z,95123.16
2018-08-03T19:16:28.410Z,95128.00
2018-08-03T19:18:57.728Z,95134.16
2018-08-03T19:21:27.215Z,95133.73
2018-08-03T19:23:56.398Z,95141.51
2018-08-03T19:26:26.474Z,95137.20
2018-08-03T19:28:56.587Z,95133.33
2018-08-03T19:31:25.698Z,95143.13
2018-08-03T19:33:55.893Z,95141.08
2018-08-03T19:36:25.121Z,95136.77
2018-08-03T19:38:54.184Z,95141.09
2018-08-03T19:41:23.157Z,95133.88
2018-08-03T19:43:53.034Z,95134.09
2018-08-03T19:46:22.704Z,95134.29
2018-08-03T19:48:51.690Z,95132.26
2018-08-03T19:51:21.065Z,95139.25
2018-08-03T19:53:50.188Z,95136.22
2018-08-03T19:56:19.258Z,95132.47
2018-08-03T19:58:48.575Z,95126.23
2018-08-03T20:01:17.380Z,95123.87
2018-08-03T20:03:46.519Z,95123.20
2018-08-03T20:06:15.994Z,95128.71
2018-08-03T20:08:44.981Z,95134.41
2018-08-03T20:11:14.439Z,95133.02
2018-08-03T20:13:44.009Z,95138.29
2018-08-03T20:16:13.102Z,95129.87
2018-08-03T20:18:42.190Z,95124.28
2018-08-03T20:21:11.723Z,95131.83
2018-08-03T20:23:40.641Z,95132.79
2018-08-03T20:26:09.768Z,95130.31
2018-08-03T20:28:39.228Z,95137.83
2018-08-03T20:31:08.138Z,95142.42
2018-08-03T20:33:37.070Z,95133.05
2018-08-03T20:36:06.484Z,95137.55
2018-08-03T20:38:35.882Z,95134.00
2018-08-03T20:41:04.758Z,95134.64
2018-08-03T20:43:34.715Z,95133.13
2018-08-03T20:46:03.811Z,95131.29
2018-08-03T20:48:33.383Z,95130.88
2018-08-03T20:51:02.720Z,95133.33
2018-08-03T20:53:31.778Z,95137.20
2018-08-03T20:56:00.598Z,95140.55
2018-08-03T20:58:29.734Z,95144.41
2018-08-03T21:00:59.323Z,95149.45
2018-08-03T21:03:28.292Z,95146.14
2018-08-03T21:05:57.719Z,95140.11
2018-08-03T21:08:26.551Z,95145.39
2018-08-03T21:10:55.481Z,95152.28
2018-08-03T21:13:24.791Z,95143.34
2018-08-03T21:15:53.765Z,95154.32
2018-08-03T21:18:23.886Z,95151.53
2018-08-03T21:20:52.719Z,95154.72
2018-08-03T21:23:21.775Z,95161.58
2018-08-03T21:25:50.873Z,95153.00
2018-08-03T21:28:19.953Z,95149.56
2018-08-03T21:30:49.154Z,95150.63
2018-08-03T21:33:18.667Z,95160.28
2018-08-03T21:35:47.695Z,95167.34
2018-08-03T21:38:16.538Z,95168.16
2018-08-03T21:40:46.077Z,95165.23
2018-08-03T21:43:15.237Z,95169.66
2018-08-03T21:45:44.134Z,95171.82
2018-08-03T21:48:12.889Z,95160.65
2018-08-03T21:50:42.143Z,95166.63
2018-08-03T21:53:11.777Z,95170.35
2018-08-03T21:55:40.626Z,95169.08
2018-08-03T21:58:09.801Z,95164.00
2018-08-03T22:00:39.254Z,95165.89
2018-08-03T22:03:08.318Z,95165.81
2018-08-03T22:05:37.554Z,95172.55
2018-08-03T22:08:06.334Z,95171.15
2018-08-03T22:10:35.103Z,95167.59
2018-08-03T22:13:04.641Z,95168.59
2018-08-03T22:15:34.822Z,95173.61
2018-08-03T22:18:03.663Z,95177.55
2018-08-03T22:20:32.562Z,95178.53
2018-08-03T22:23:01.422Z,95184.71
2018-08-03T22:25:30.330Z,95182.92
2018-08-03T22:27:59.344Z,95174.21
2018-08-03T22:30:28.614Z,95166.83
2018-08-03T22:32:57.679Z,95168.73
2018-08-03T22:35:26.654Z,95168.48
2018-08-03T22:37:55.706Z,95174.77
2018-08-03T22:40:24.678Z,95174.40
2018-08-03T22:42:53.961Z,95172.84
2018-08-03T22:45:22.770Z,95170.59
2018-08-03T22:47:51.993Z,95165.61
2018-08-03T22:50:21.282Z,95162.98
2018-08-03T22:52:50.188Z,95159.45
2018-08-03T22:55:19.329Z,95165.02
2018-08-03T22:57:48.450Z,95154.16
2018-08-03T23:00:18.019Z,95153.28
2018-08-03T23:02:47.071Z,95160.25
2018-08-03T23:05:16.594Z,95151.77
2018-08-03T23:07:45.436Z,95146.48
2018-08-03T23:10:14.372Z,95146.95
2018-08-03T23:12:44.094Z,95157.26
2018-08-03T23:15:13.154Z,95154.77
2018-08-03T23:17:41.966Z,95154.59
2018-08-03T23:20:11.176Z,95148.25
2018-08-03T23:22:40.077Z,95153.27
2018-08-03T23:25:09.007Z,95149.89
2018-08-03T23:27:38.960Z,95146.81
2018-08-03T23:30:09.319Z,95146.81
2018-08-03T23:32:38.626Z,95150.23
2018-08-03T23:35:08.454Z,95149.27
2018-08-03T23:37:37.907Z,95144.33
2018-08-03T23:40:07.138Z,95145.72
2018-08-03T23:42:37.094Z,95148.16
2018-08-03T23:45:06.801Z,95147.33
2018-08-03T23:47:35.936Z,95146.13
2018-08-03T23:50:06.279Z,95142.12
2018-08-03T23:52:35.343Z,95143.98
2018-08-03T23:55:04.312Z,95144.45
2018-08-03T23:57:33.487Z,95142.88
